sensor_id;sensor_type;location;lat;lon;timestamp;P1;durP1;ratioP1;P2;durP2;ratioP2
45392;SDS011;31129;44.810;10.334;2022-11-21T00:01:50;16.90;;;10.65;;
45392;SDS011;31129;44.810;10.334;2022-11-21T00:04:16;21.83;;;12.07;;
45392;SDS011;31129;44.810;10.334;2022-11-21T00:06:41;22.20;;;12.55;;
45392;SDS011;31129;44.810;10.334;2022-11-21T00:09:10;23.08;;;11.90;;
45392;SDS011;31129;44.810;10.334;2022-11-21T00:11:35;20.95;;;12.25;;
45392;SDS011;31129;44.810;10.334;2022-11-21T00:14:00;22.58;;;12.57;;
45392;SDS011;31129;44.810;10.334;2022-11-21T00:16:26;22.40;;;11.90;;
45392;SDS011;31129;44.810;10.334;2022-11-21T00:18:51;23.27;;;11.73;;
45392;SDS011;31129;44.810;10.334;2022-11-21T00:21:17;23.42;;;12.82;;
45392;SDS011;31129;44.810;10.334;2022-11-21T00:23:45;21.13;;;12.52;;
45392;SDS011;31129;44.810;10.334;2022-11-21T00:26:12;21.45;;;11.93;;
45392;SDS011;31129;44.810;10.334;2022-11-21T00:28:39;20.85;;;12.43;;
45392;SDS011;31129;44.810;10.334;2022-11-21T00:31:04;22.73;;;11.85;;
45392;SDS011;31129;44.810;10.334;2022-11-21T00:33:30;25.02;;;13.02;;
45392;SDS011;31129;44.810;10.334;2022-11-21T00:35:56;22.70;;;12.60;;
45392;SDS011;31129;44.810;10.334;2022-11-21T00:38:22;22.77;;;12.38;;
45392;SDS011;31129;44.810;10.334;2022-11-21T00:40:50;22.38;;;12.73;;
45392;SDS011;31129;44.810;10.334;2022-11-21T00:43:19;19.92;;;11.27;;
45392;SDS011;31129;44.810;10.334;2022-11-21T00:45:44;15.75;;;9.95;;
45392;SDS011;31129;44.810;10.334;2022-11-21T00:48:10;18.35;;;10.73;;
45392;SDS011;31129;44.810;10.334;2022-11-21T00:50:35;17.45;;;10.30;;
45392;SDS011;31129;44.810;10.334;2022-11-21T00:53:01;22.60;;;10.93;;
45392;SDS011;31129;44.810;10.334;2022-11-21T00:55:26;17.38;;;11.13;;
45392;SDS011;31129;44.810;10.334;2022-11-21T00:57:51;15.68;;;9.25;;
45392;SDS011;31129;44.810;10.334;2022-11-21T01:00:17;14.25;;;8.65;;
45392;SDS011;31129;44.810;10.334;2022-11-21T01:02:43;15.98;;;9.68;;
45392;SDS011;31129;44.810;10.334;2022-11-21T01:05:08;18.98;;;10.82;;
45392;SDS011;31129;44.810;10.334;2022-11-21T01:07:34;15.18;;;9.13;;
45392;SDS011;31129;44.810;10.334;2022-11-21T01:09:59;15.30;;;8.55;;
45392;SDS011;31129;44.810;10.334;2022-11-21T01:12:25;13.43;;;8.18;;
45392;SDS011;31129;44.810;10.334;2022-11-21T01:14:51;13.95;;;8.50;;
45392;SDS011;31129;44.810;10.334;2022-11-21T01:17:17;16.00;;;8.82;;
45392;SDS011;31129;44.810;10.334;2022-11-21T01:19:43;12.75;;;7.22;;
45392;SDS011;31129;44.810;10.334;2022-11-21T01:22:08;14.85;;;7.43;;
45392;SDS011;31129;44.810;10.334;2022-11-21T01:24:34;14.55;;;7.20;;
45392;SDS011;31129;44.810;10.334;2022-11-21T01:26:59;14.48;;;8.13;;
45392;SDS011;31129;44.810;10.334;2022-11-21T01:29:26;13.25;;;7.70;;
45392;SDS011;31129;44.810;10.334;2022-11-21T01:31:52;12.27;;;6.15;;
45392;SDS011;31129;44.810;10.334;2022-11-21T01:34:20;13.02;;;6.00;;
45392;SDS011;31129;44.810;10.334;2022-11-21T01:36:46;10.93;;;6.28;;
45392;SDS011;31129;44.810;10.334;2022-11-21T01:39:14;9.68;;;6.32;;
45392;SDS011;31129;44.810;10.334;2022-11-21T01:41:41;10.45;;;5.95;;
45392;SDS011;31129;44.810;10.334;2022-11-21T01:44:19;7.88;;;5.43;;
45392;SDS011;31129;44.810;10.334;2022-11-21T01:46:46;12.30;;;6.43;;
45392;SDS011;31129;44.810;10.334;2022-11-21T01:49:15;8.93;;;4.68;;
45392;SDS011;31129;44.810;10.334;2022-11-21T01:51:46;6.60;;;4.50;;
45392;SDS011;31129;44.810;10.334;2022-11-21T01:56:59;8.02;;;4.15;;
45392;SDS011;31129;44.810;10.334;2022-11-21T01:59:29;5.60;;;3.80;;
45392;SDS011;31129;44.810;10.334;2022-11-21T02:01:58;6.85;;;3.63;;
45392;SDS011;31129;44.810;10.334;2022-11-21T02:04:30;4.65;;;3.47;;
45392;SDS011;31129;44.810;10.334;2022-11-21T02:06:58;4.85;;;3.45;;
45392;SDS011;31129;44.810;10.334;2022-11-21T02:09:27;10.32;;;3.90;;
45392;SDS011;31129;44.810;10.334;2022-11-21T02:12:00;8.05;;;3.38;;
45392;SDS011;31129;44.810;10.334;2022-11-21T02:14:29;8.32;;;3.92;;
45392;SDS011;31129;44.810;10.334;2022-11-21T02:16:56;6.95;;;4.43;;
45392;SDS011;31129;44.810;10.334;2022-11-21T02:19:46;7.60;;;3.85;;
45392;SDS011;31129;44.810;10.334;2022-11-21T02:27:31;8.60;;;5.28;;
45392;SDS011;31129;44.810;10.334;2022-11-21T02:29:57;6.63;;;4.43;;
45392;SDS011;31129;44.810;10.334;2022-11-21T02:32:24;8.57;;;4.88;;
45392;SDS011;31129;44.810;10.334;2022-11-21T02:34:56;8.13;;;4.88;;
45392;SDS011;31129;44.810;10.334;2022-11-21T02:37:21;9.23;;;5.00;;
45392;SDS011;31129;44.810;10.334;2022-11-21T02:39:47;6.22;;;4.35;;
45392;SDS011;31129;44.810;10.334;2022-11-21T02:42:23;7.85;;;4.47;;
45392;SDS011;31129;44.810;10.334;2022-11-21T02:45:08;5.00;;;3.60;;
45392;SDS011;31129;44.810;10.334;2022-11-21T02:47:36;6.25;;;3.90;;
45392;SDS011;31129;44.810;10.334;2022-11-21T02:52:44;5.57;;;3.80;;
45392;SDS011;31129;44.810;10.334;2022-11-21T02:55:09;9.98;;;3.80;;
45392;SDS011;31129;44.810;10.334;2022-11-21T02:57:39;6.05;;;3.60;;
45392;SDS011;31129;44.810;10.334;2022-11-21T03:00:05;6.38;;;3.35;;
45392;SDS011;31129;44.810;10.334;2022-11-21T03:02:31;9.85;;;4.35;;
45392;SDS011;31129;44.810;10.334;2022-11-21T03:04:57;5.60;;;4.00;;
45392;SDS011;31129;44.810;10.334;2022-11-21T03:07:22;5.40;;;3.35;;
45392;SDS011;31129;44.810;10.334;2022-11-21T03:09:48;4.97;;;3.67;;
45392;SDS011;31129;44.810;10.334;2022-11-21T03:12:13;5.78;;;3.53;;
45392;SDS011;31129;44.810;10.334;2022-11-21T03:14:39;5.05;;;3.65;;
45392;SDS011;31129;44.810;10.334;2022-11-21T03:17:04;5.25;;;3.08;;
45392;SDS011;31129;44.810;10.334;2022-11-21T03:19:30;5.60;;;3.03;;
45392;SDS011;31129;44.810;10.334;2022-11-21T03:21:55;3.88;;;3.22;;
45392;SDS011;31129;44.810;10.334;2022-11-21T03:24:21;4.47;;;2.80;;
45392;SDS011;31129;44.810;10.334;2022-11-21T03:26:46;4.85;;;3.15;;
45392;SDS011;31129;44.810;10.334;2022-11-21T03:29:15;4.20;;;2.80;;
45392;SDS011;31129;44.810;10.334;2022-11-21T03:34:06;5.60;;;3.83;;
45392;SDS011;31129;44.810;10.334;2022-11-21T03:36:31;3.88;;;3.13;;
45392;SDS011;31129;44.810;10.334;2022-11-21T03:38:57;6.50;;;3.17;;
45392;SDS011;31129;44.810;10.334;2022-11-21T03:41:23;9.77;;;3.05;;
45392;SDS011;31129;44.810;10.334;2022-11-21T03:44:00;3.53;;;2.75;;
45392;SDS011;31129;44.810;10.334;2022-11-21T03:46:26;4.90;;;3.17;;
45392;SDS011;31129;44.810;10.334;2022-11-21T03:48:52;3.40;;;2.47;;
45392;SDS011;31129;44.810;10.334;2022-11-21T03:51:18;3.88;;;2.85;;
45392;SDS011;31129;44.810;10.334;2022-11-21T03:53:44;6.20;;;3.08;;
45392;SDS011;31129;44.810;10.334;2022-11-21T03:56:09;3.97;;;2.60;;
45392;SDS011;31129;44.810;10.334;2022-11-21T03:58:35;4.78;;;2.85;;
45392;SDS011;31129;44.810;10.334;2022-11-21T04:01:01;5.00;;;2.83;;
45392;SDS011;31129;44.810;10.334;2022-11-21T04:03:26;4.43;;;3.60;;
45392;SDS011;31129;44.810;10.334;2022-11-21T04:05:52;5.72;;;3.78;;
45392;SDS011;31129;44.810;10.334;2022-11-21T04:08:17;6.10;;;4.05;;
45392;SDS011;31129;44.810;10.334;2022-11-21T04:10:46;6.22;;;4.20;;
45392;SDS011;31129;44.810;10.334;2022-11-21T04:13:12;6.60;;;4.22;;
45392;SDS011;31129;44.810;10.334;2022-11-21T04:15:39;6.97;;;4.50;;
45392;SDS011;31129;44.810;10.334;2022-11-21T04:18:05;7.53;;;5.03;;
45392;SDS011;31129;44.810;10.334;2022-11-21T04:20:31;10.68;;;4.40;;
45392;SDS011;31129;44.810;10.334;2022-11-21T04:22:56;6.72;;;3.85;;
45392;SDS011;31129;44.810;10.334;2022-11-21T04:25:21;10.60;;;3.92;;
45392;SDS011;31129;44.810;10.334;2022-11-21T04:27:47;8.90;;;4.47;;
45392;SDS011;31129;44.810;10.334;2022-11-21T04:30:12;6.10;;;3.90;;
45392;SDS011;31129;44.810;10.334;2022-11-21T04:32:38;5.70;;;3.38;;
45392;SDS011;31129;44.810;10.334;2022-11-21T04:35:04;5.38;;;3.42;;
45392;SDS011;31129;44.810;10.334;2022-11-21T04:37:29;6.82;;;4.03;;
45392;SDS011;31129;44.810;10.334;2022-11-21T04:39:55;7.25;;;4.13;;
45392;SDS011;31129;44.810;10.334;2022-11-21T04:42:20;7.55;;;4.50;;
45392;SDS011;31129;44.810;10.334;2022-11-21T04:44:46;9.13;;;4.85;;
45392;SDS011;31129;44.810;10.334;2022-11-21T04:47:12;8.07;;;5.20;;
45392;SDS011;31129;44.810;10.334;2022-11-21T04:49:37;10.27;;;5.40;;
45392;SDS011;31129;44.810;10.334;2022-11-21T04:52:06;12.15;;;5.43;;
45392;SDS011;31129;44.810;10.334;2022-11-21T04:54:31;9.43;;;5.13;;
45392;SDS011;31129;44.810;10.334;2022-11-21T04:56:56;12.50;;;5.32;;
45392;SDS011;31129;44.810;10.334;2022-11-21T04:59:22;13.25;;;5.43;;
45392;SDS011;31129;44.810;10.334;2022-11-21T05:01:47;11.80;;;6.13;;
45392;SDS011;31129;44.810;10.334;2022-11-21T05:04:13;14.07;;;6.15;;
45392;SDS011;31129;44.810;10.334;2022-11-21T05:06:38;13.68;;;6.63;;
45392;SDS011;31129;44.810;10.334;2022-11-21T05:09:04;14.18;;;8.20;;
45392;SDS011;31129;44.810;10.334;2022-11-21T05:11:29;16.42;;;8.77;;
45392;SDS011;31129;44.810;10.334;2022-11-21T05:14:14;16.38;;;9.50;;
45392;SDS011;31129;44.810;10.334;2022-11-21T05:16:40;20.17;;;9.93;;
45392;SDS011;31129;44.810;10.334;2022-11-21T05:19:08;17.65;;;10.15;;
45392;SDS011;31129;44.810;10.334;2022-11-21T05:23:59;15.93;;;8.82;;
45392;SDS011;31129;44.810;10.334;2022-11-21T05:26:24;12.82;;;7.10;;
45392;SDS011;31129;44.810;10.334;2022-11-21T05:28:50;14.20;;;6.63;;
45392;SDS011;31129;44.810;10.334;2022-11-21T05:31:15;11.98;;;6.85;;
45392;SDS011;31129;44.810;10.334;2022-11-21T05:33:41;15.93;;;8.65;;
45392;SDS011;31129;44.810;10.334;2022-11-21T05:36:06;13.48;;;8.40;;
45392;SDS011;31129;44.810;10.334;2022-11-21T05:38:32;15.27;;;8.20;;
45392;SDS011;31129;44.810;10.334;2022-11-21T05:40:57;15.05;;;7.03;;
45392;SDS011;31129;44.810;10.334;2022-11-21T05:43:22;11.05;;;6.38;;
45392;SDS011;31129;44.810;10.334;2022-11-21T05:46:07;13.02;;;7.55;;
45392;SDS011;31129;44.810;10.334;2022-11-21T05:48:32;13.38;;;6.82;;
45392;SDS011;31129;44.810;10.334;2022-11-21T05:51:00;11.48;;;6.30;;
45392;SDS011;31129;44.810;10.334;2022-11-21T05:53:26;7.68;;;5.22;;
45392;SDS011;31129;44.810;10.334;2022-11-21T05:55:51;12.38;;;6.90;;
45392;SDS011;31129;44.810;10.334;2022-11-21T05:58:17;7.65;;;5.45;;
45392;SDS011;31129;44.810;10.334;2022-11-21T06:00:43;8.95;;;5.57;;
45392;SDS011;31129;44.810;10.334;2022-11-21T06:03:09;9.68;;;6.43;;
45392;SDS011;31129;44.810;10.334;2022-11-21T06:06:05;11.50;;;6.10;;
45392;SDS011;31129;44.810;10.334;2022-11-21T06:08:33;10.00;;;6.13;;
45392;SDS011;31129;44.810;10.334;2022-11-21T06:11:11;12.10;;;6.40;;
45392;SDS011;31129;44.810;10.334;2022-11-21T06:13:40;10.05;;;5.68;;
45392;SDS011;31129;44.810;10.334;2022-11-21T06:16:13;11.45;;;6.22;;
45392;SDS011;31129;44.810;10.334;2022-11-21T06:18:41;14.77;;;6.28;;
45392;SDS011;31129;44.810;10.334;2022-11-21T06:21:14;9.48;;;5.38;;
45392;SDS011;31129;44.810;10.334;2022-11-21T06:23:41;8.88;;;5.55;;
45392;SDS011;31129;44.810;10.334;2022-11-21T06:26:10;10.18;;;6.55;;
45392;SDS011;31129;44.810;10.334;2022-11-21T06:28:38;15.38;;;5.93;;
45392;SDS011;31129;44.810;10.334;2022-11-21T06:31:25;10.70;;;6.15;;
45392;SDS011;31129;44.810;10.334;2022-11-21T06:33:52;10.25;;;6.00;;
45392;SDS011;31129;44.810;10.334;2022-11-21T06:36:24;12.35;;;6.00;;
45392;SDS011;31129;44.810;10.334;2022-11-21T06:38:51;9.75;;;5.68;;
45392;SDS011;31129;44.810;10.334;2022-11-21T06:41:22;9.90;;;5.80;;
45392;SDS011;31129;44.810;10.334;2022-11-21T06:43:49;9.90;;;5.72;;
45392;SDS011;31129;44.810;10.334;2022-11-21T06:46:15;8.88;;;5.25;;
45392;SDS011;31129;44.810;10.334;2022-11-21T06:48:41;8.95;;;5.75;;
45392;SDS011;31129;44.810;10.334;2022-11-21T06:53:33;7.90;;;5.43;;
45392;SDS011;31129;44.810;10.334;2022-11-21T06:56:00;12.05;;;5.72;;
45392;SDS011;31129;44.810;10.334;2022-11-21T06:58:26;6.82;;;4.43;;
45392;SDS011;31129;44.810;10.334;2022-11-21T07:00:53;12.35;;;4.22;;
45392;SDS011;31129;44.810;10.334;2022-11-21T07:03:18;10.38;;;4.13;;
45392;SDS011;31129;44.810;10.334;2022-11-21T07:05:44;5.88;;;4.00;;
45392;SDS011;31129;44.810;10.334;2022-11-21T07:08:09;7.18;;;3.80;;
45392;SDS011;31129;44.810;10.334;2022-11-21T07:10:35;7.03;;;4.07;;
45392;SDS011;31129;44.810;10.334;2022-11-21T07:13:00;9.70;;;4.38;;
45392;SDS011;31129;44.810;10.334;2022-11-21T07:15:44;6.90;;;3.92;;
45392;SDS011;31129;44.810;10.334;2022-11-21T07:18:11;10.93;;;4.00;;
45392;SDS011;31129;44.810;10.334;2022-11-21T07:20:37;10.85;;;4.60;;
45392;SDS011;31129;44.810;10.334;2022-11-21T07:23:03;7.13;;;3.92;;
45392;SDS011;31129;44.810;10.334;2022-11-21T07:25:28;5.32;;;4.00;;
45392;SDS011;31129;44.810;10.334;2022-11-21T07:27:57;9.93;;;5.25;;
45392;SDS011;31129;44.810;10.334;2022-11-21T07:30:26;8.93;;;5.53;;
45392;SDS011;31129;44.810;10.334;2022-11-21T07:32:56;13.13;;;4.35;;
45392;SDS011;31129;44.810;10.334;2022-11-21T07:35:22;12.55;;;6.13;;
45392;SDS011;31129;44.810;10.334;2022-11-21T07:37:48;11.35;;;5.68;;
45392;SDS011;31129;44.810;10.334;2022-11-21T07:40:13;9.05;;;5.32;;
45392;SDS011;31129;44.810;10.334;2022-11-21T07:42:39;8.85;;;5.65;;
45392;SDS011;31129;44.810;10.334;2022-11-21T07:45:05;10.30;;;5.65;;
45392;SDS011;31129;44.810;10.334;2022-11-21T07:47:30;10.90;;;6.22;;
45392;SDS011;31129;44.810;10.334;2022-11-21T07:49:56;17.92;;;6.35;;
45392;SDS011;31129;44.810;10.334;2022-11-21T07:52:24;13.13;;;6.13;;
45392;SDS011;31129;44.810;10.334;2022-11-21T07:54:50;17.52;;;7.72;;
45392;SDS011;31129;44.810;10.334;2022-11-21T07:57:16;13.32;;;6.80;;
45392;SDS011;31129;44.810;10.334;2022-11-21T07:59:41;14.63;;;7.90;;
45392;SDS011;31129;44.810;10.334;2022-11-21T08:02:21;14.32;;;6.57;;
45392;SDS011;31129;44.810;10.334;2022-11-21T08:04:48;11.90;;;7.43;;
45392;SDS011;31129;44.810;10.334;2022-11-21T08:07:16;16.00;;;7.40;;
45392;SDS011;31129;44.810;10.334;2022-11-21T08:09:43;16.08;;;8.52;;
45392;SDS011;31129;44.810;10.334;2022-11-21T08:12:09;11.98;;;7.40;;
45392;SDS011;31129;44.810;10.334;2022-11-21T08:14:35;15.10;;;8.52;;
45392;SDS011;31129;44.810;10.334;2022-11-21T08:17:00;13.95;;;8.70;;
45392;SDS011;31129;44.810;10.334;2022-11-21T08:19:26;19.10;;;8.27;;
45392;SDS011;31129;44.810;10.334;2022-11-21T08:21:52;12.77;;;7.72;;
45392;SDS011;31129;44.810;10.334;2022-11-21T08:24:17;17.02;;;8.60;;
45392;SDS011;31129;44.810;10.334;2022-11-21T08:26:43;15.15;;;8.20;;
45392;SDS011;31129;44.810;10.334;2022-11-21T08:29:10;17.13;;;8.35;;
45392;SDS011;31129;44.810;10.334;2022-11-21T08:31:36;12.73;;;8.02;;
45392;SDS011;31129;44.810;10.334;2022-11-21T08:34:02;12.68;;;7.75;;
45392;SDS011;31129;44.810;10.334;2022-11-21T08:36:28;15.23;;;8.60;;
45392;SDS011;31129;44.810;10.334;2022-11-21T08:38:54;14.95;;;8.63;;
45392;SDS011;31129;44.810;10.334;2022-11-21T08:41:19;16.30;;;9.10;;
45392;SDS011;31129;44.810;10.334;2022-11-21T08:44:03;15.48;;;8.27;;
45392;SDS011;31129;44.810;10.334;2022-11-21T08:46:29;17.48;;;9.02;;
45392;SDS011;31129;44.810;10.334;2022-11-21T08:48:58;13.00;;;8.70;;
45392;SDS011;31129;44.810;10.334;2022-11-21T08:51:23;15.55;;;8.38;;
45392;SDS011;31129;44.810;10.334;2022-11-21T08:53:49;18.95;;;10.32;;
45392;SDS011;31129;44.810;10.334;2022-11-21T08:56:14;14.90;;;9.45;;
45392;SDS011;31129;44.810;10.334;2022-11-21T08:58:40;16.17;;;8.95;;
45392;SDS011;31129;44.810;10.334;2022-11-21T09:01:05;16.92;;;9.60;;
45392;SDS011;31129;44.810;10.334;2022-11-21T09:03:31;14.98;;;10.05;;
45392;SDS011;31129;44.810;10.334;2022-11-21T09:05:57;16.30;;;10.15;;
45392;SDS011;31129;44.810;10.334;2022-11-21T09:08:23;17.90;;;11.52;;
45392;SDS011;31129;44.810;10.334;2022-11-21T09:10:49;18.33;;;10.77;;
45392;SDS011;31129;44.810;10.334;2022-11-21T09:13:15;17.23;;;10.88;;
45392;SDS011;31129;44.810;10.334;2022-11-21T09:15:40;18.10;;;11.68;;
45392;SDS011;31129;44.810;10.334;2022-11-21T09:18:24;17.33;;;11.63;;
45392;SDS011;31129;44.810;10.334;2022-11-21T09:20:50;16.45;;;10.15;;
45392;SDS011;31129;44.810;10.334;2022-11-21T09:23:15;20.98;;;11.90;;
45392;SDS011;31129;44.810;10.334;2022-11-21T09:25:41;17.60;;;11.05;;
45392;SDS011;31129;44.810;10.334;2022-11-21T09:28:08;17.77;;;10.23;;
45392;SDS011;31129;44.810;10.334;2022-11-21T09:30:34;18.02;;;11.32;;
45392;SDS011;31129;44.810;10.334;2022-11-21T09:33:00;16.60;;;10.50;;
45392;SDS011;31129;44.810;10.334;2022-11-21T09:35:27;17.13;;;11.15;;
45392;SDS011;31129;44.810;10.334;2022-11-21T09:37:53;20.75;;;12.18;;
45392;SDS011;31129;44.810;10.334;2022-11-21T09:40:19;18.02;;;11.45;;
45392;SDS011;31129;44.810;10.334;2022-11-21T09:45:36;23.45;;;12.43;;
45392;SDS011;31129;44.810;10.334;2022-11-21T09:48:10;22.48;;;13.10;;
45392;SDS011;31129;44.810;10.334;2022-11-21T09:50:38;22.60;;;13.05;;
45392;SDS011;31129;44.810;10.334;2022-11-21T09:58:04;21.45;;;12.52;;
45392;SDS011;31129;44.810;10.334;2022-11-21T10:00:33;21.65;;;12.65;;
45392;SDS011;31129;44.810;10.334;2022-11-21T10:02:59;22.38;;;12.90;;
45392;SDS011;31129;44.810;10.334;2022-11-21T10:13:40;26.33;;;14.95;;
45392;SDS011;31129;44.810;10.334;2022-11-21T10:16:39;27.83;;;16.40;;
45392;SDS011;31129;44.810;10.334;2022-11-21T10:19:44;25.83;;;14.48;;
45392;SDS011;31129;44.810;10.334;2022-11-21T10:25:14;26.98;;;14.80;;
45392;SDS011;31129;44.810;10.334;2022-11-21T10:30:23;24.08;;;15.23;;
45392;SDS011;31129;44.810;10.334;2022-11-21T10:32:56;22.38;;;14.70;;
45392;SDS011;31129;44.810;10.334;2022-11-21T10:35:37;28.23;;;15.63;;
45392;SDS011;31129;44.810;10.334;2022-11-21T10:38:24;32.83;;;17.15;;
45392;SDS011;31129;44.810;10.334;2022-11-21T10:43:28;24.05;;;15.07;;
45392;SDS011;31129;44.810;10.334;2022-11-21T10:46:18;26.15;;;17.33;;
45392;SDS011;31129;44.810;10.334;2022-11-21T10:54:11;27.05;;;16.55;;
45392;SDS011;31129;44.810;10.334;2022-11-21T10:59:35;27.05;;;15.52;;
45392;SDS011;31129;44.810;10.334;2022-11-21T11:02:02;31.85;;;17.15;;
45392;SDS011;31129;44.810;10.334;2022-11-21T11:04:46;23.30;;;15.88;;
45392;SDS011;31129;44.810;10.334;2022-11-21T11:07:22;28.17;;;15.85;;
45392;SDS011;31129;44.810;10.334;2022-11-21T11:09:52;23.83;;;15.93;;
45392;SDS011;31129;44.810;10.334;2022-11-21T11:12:37;28.25;;;17.20;;
45392;SDS011;31129;44.810;10.334;2022-11-21T11:15:32;28.13;;;16.98;;
45392;SDS011;31129;44.810;10.334;2022-11-21T11:17:58;28.35;;;15.90;;
45392;SDS011;31129;44.810;10.334;2022-11-21T11:20:42;26.00;;;14.90;;
45392;SDS011;31129;44.810;10.334;2022-11-21T11:25:44;25.63;;;15.85;;
45392;SDS011;31129;44.810;10.334;2022-11-21T11:28:33;26.98;;;15.15;;
45392;SDS011;31129;44.810;10.334;2022-11-21T11:31:00;19.90;;;14.27;;
45392;SDS011;31129;44.810;10.334;2022-11-21T11:33:28;22.40;;;14.68;;
45392;SDS011;31129;44.810;10.334;2022-11-21T11:38:37;22.30;;;14.68;;
45392;SDS011;31129;44.810;10.334;2022-11-21T11:44:12;20.17;;;14.20;;
45392;SDS011;31129;44.810;10.334;2022-11-21T11:47:07;21.77;;;14.70;;
45392;SDS011;31129;44.810;10.334;2022-11-21T11:49:58;20.63;;;14.20;;
45392;SDS011;31129;44.810;10.334;2022-11-21T11:52:47;23.98;;;12.30;;
45392;SDS011;31129;44.810;10.334;2022-11-21T11:55:33;20.23;;;11.43;;
45392;SDS011;31129;44.810;10.334;2022-11-21T11:58:06;17.80;;;11.88;;
45392;SDS011;31129;44.810;10.334;2022-11-21T12:03:20;20.27;;;12.55;;
45392;SDS011;31129;44.810;10.334;2022-11-21T12:08:33;21.25;;;13.57;;
45392;SDS011;31129;44.810;10.334;2022-11-21T12:11:08;18.70;;;12.45;;
45392;SDS011;31129;44.810;10.334;2022-11-21T12:14:00;22.58;;;13.30;;
45392;SDS011;31129;44.810;10.334;2022-11-21T12:16:35;21.60;;;13.50;;
45392;SDS011;31129;44.810;10.334;2022-11-21T12:19:02;21.48;;;12.73;;
45392;SDS011;31129;44.810;10.334;2022-11-21T12:21:34;21.35;;;12.20;;
45392;SDS011;31129;44.810;10.334;2022-11-21T12:24:03;20.33;;;12.48;;
45392;SDS011;31129;44.810;10.334;2022-11-21T12:39:51;21.05;;;13.00;;
45392;SDS011;31129;44.810;10.334;2022-11-21T12:56:56;21.23;;;11.40;;
45392;SDS011;31129;44.810;10.334;2022-11-21T13:04:51;18.98;;;11.23;;
45392;SDS011;31129;44.810;10.334;2022-11-21T13:09:46;20.23;;;11.52;;
45392;SDS011;31129;44.810;10.334;2022-11-21T13:12:21;19.75;;;11.13;;
45392;SDS011;31129;44.810;10.334;2022-11-21T13:22:53;20.48;;;11.65;;
45392;SDS011;31129;44.810;10.334;2022-11-21T13:25:39;19.42;;;12.27;;
45392;SDS011;31129;44.810;10.334;2022-11-21T13:28:47;23.63;;;12.80;;
45392;SDS011;31129;44.810;10.334;2022-11-21T13:30:56;21.77;;;11.90;;
45392;SDS011;31129;44.810;10.334;2022-11-21T13:36:11;18.73;;;11.40;;
45392;SDS011;31129;44.810;10.334;2022-11-21T13:55:03;18.60;;;11.90;;
45392;SDS011;31129;44.810;10.334;2022-11-21T14:03:55;17.58;;;11.32;;
45392;SDS011;31129;44.810;10.334;2022-11-21T14:06:42;22.73;;;12.17;;
45392;SDS011;31129;44.810;10.334;2022-11-21T14:11:44;24.23;;;12.88;;
45392;SDS011;31129;44.810;10.334;2022-11-21T14:19:37;22.40;;;13.75;;
45392;SDS011;31129;44.810;10.334;2022-11-21T14:22:11;28.63;;;13.93;;
45392;SDS011;31129;44.810;10.334;2022-11-21T14:24:40;23.63;;;14.55;;
45392;SDS011;31129;44.810;10.334;2022-11-21T14:27:05;23.42;;;15.13;;
45392;SDS011;31129;44.810;10.334;2022-11-21T14:29:42;28.35;;;15.55;;
45392;SDS011;31129;44.810;10.334;2022-11-21T14:32:14;23.60;;;14.40;;
45392;SDS011;31129;44.810;10.334;2022-11-21T14:34:40;24.45;;;14.02;;
45392;SDS011;31129;44.810;10.334;2022-11-21T14:37:05;23.58;;;13.88;;
45392;SDS011;31129;44.810;10.334;2022-11-21T14:39:37;25.42;;;15.38;;
45392;SDS011;31129;44.810;10.334;2022-11-21T14:42:05;22.17;;;14.70;;
45392;SDS011;31129;44.810;10.334;2022-11-21T14:44:37;24.95;;;14.98;;
45392;SDS011;31129;44.810;10.334;2022-11-21T14:47:16;24.77;;;15.48;;
45392;SDS011;31129;44.810;10.334;2022-11-21T14:49:50;29.83;;;16.42;;
45392;SDS011;31129;44.810;10.334;2022-11-21T14:57:23;26.02;;;15.55;;
45392;SDS011;31129;44.810;10.334;2022-11-21T14:59:53;24.02;;;15.63;;
45392;SDS011;31129;44.810;10.334;2022-11-21T15:02:21;25.27;;;14.85;;
45392;SDS011;31129;44.810;10.334;2022-11-21T15:04:49;24.73;;;15.02;;
45392;SDS011;31129;44.810;10.334;2022-11-21T15:07:17;24.27;;;14.80;;
45392;SDS011;31129;44.810;10.334;2022-11-21T15:09:47;22.15;;;15.38;;
45392;SDS011;31129;44.810;10.334;2022-11-21T15:12:13;23.77;;;15.48;;
45392;SDS011;31129;44.810;10.334;2022-11-21T15:15:15;25.33;;;16.25;;
45392;SDS011;31129;44.810;10.334;2022-11-21T15:17:43;24.52;;;15.55;;
45392;SDS011;31129;44.810;10.334;2022-11-21T15:22:38;32.45;;;18.90;;
45392;SDS011;31129;44.810;10.334;2022-11-21T15:25:13;27.23;;;16.98;;
45392;SDS011;31129;44.810;10.334;2022-11-21T15:27:44;30.80;;;17.52;;
45392;SDS011;31129;44.810;10.334;2022-11-21T15:35:46;27.83;;;16.55;;
45392;SDS011;31129;44.810;10.334;2022-11-21T15:38:29;31.60;;;18.52;;
45392;SDS011;31129;44.810;10.334;2022-11-21T15:41:00;33.42;;;18.77;;
45392;SDS011;31129;44.810;10.334;2022-11-21T15:43:42;28.67;;;17.30;;
45392;SDS011;31129;44.810;10.334;2022-11-21T15:48:40;29.48;;;18.77;;
45392;SDS011;31129;44.810;10.334;2022-11-21T15:51:09;38.47;;;21.23;;
45392;SDS011;31129;44.810;10.334;2022-11-21T15:53:35;27.15;;;17.35;;
45392;SDS011;31129;44.810;10.334;2022-11-21T15:56:01;30.90;;;17.98;;
45392;SDS011;31129;44.810;10.334;2022-11-21T15:58:27;28.52;;;18.48;;
45392;SDS011;31129;44.810;10.334;2022-11-21T16:00:53;32.65;;;20.15;;
45392;SDS011;31129;44.810;10.334;2022-11-21T16:03:18;31.40;;;19.10;;
45392;SDS011;31129;44.810;10.334;2022-11-21T16:05:44;31.42;;;18.77;;
45392;SDS011;31129;44.810;10.334;2022-11-21T16:08:12;31.83;;;18.70;;
45392;SDS011;31129;44.810;10.334;2022-11-21T16:13:03;35.63;;;20.60;;
45392;SDS011;31129;44.810;10.334;2022-11-21T16:15:28;35.50;;;19.67;;
45392;SDS011;31129;44.810;10.334;2022-11-21T16:17:54;32.70;;;19.67;;
45392;SDS011;31129;44.810;10.334;2022-11-21T16:20:19;36.25;;;20.02;;
45392;SDS011;31129;44.810;10.334;2022-11-21T16:22:45;29.33;;;18.30;;
45392;SDS011;31129;44.810;10.334;2022-11-21T16:25:10;38.35;;;19.55;;
45392;SDS011;31129;44.810;10.334;2022-11-21T16:27:36;30.52;;;19.08;;
45392;SDS011;31129;44.810;10.334;2022-11-21T16:30:01;34.40;;;20.17;;
45392;SDS011;31129;44.810;10.334;2022-11-21T16:32:27;33.90;;;20.45;;
45392;SDS011;31129;44.810;10.334;2022-11-21T16:34:52;29.55;;;17.98;;
45392;SDS011;31129;44.810;10.334;2022-11-21T16:37:22;33.72;;;19.20;;
45392;SDS011;31129;44.810;10.334;2022-11-21T16:39:48;32.30;;;18.30;;
45392;SDS011;31129;44.810;10.334;2022-11-21T16:42:19;33.85;;;19.85;;
45392;SDS011;31129;44.810;10.334;2022-11-21T16:44:44;35.08;;;19.17;;
45392;SDS011;31129;44.810;10.334;2022-11-21T16:47:10;33.47;;;19.33;;
45392;SDS011;31129;44.810;10.334;2022-11-21T16:49:37;44.45;;;20.13;;
45392;SDS011;31129;44.810;10.334;2022-11-21T16:52:11;35.83;;;20.40;;
45392;SDS011;31129;44.810;10.334;2022-11-21T16:54:37;37.58;;;21.27;;
45392;SDS011;31129;44.810;10.334;2022-11-21T16:57:03;36.85;;;20.48;;
45392;SDS011;31129;44.810;10.334;2022-11-21T16:59:30;47.38;;;22.38;;
45392;SDS011;31129;44.810;10.334;2022-11-21T17:01:56;36.20;;;22.77;;
45392;SDS011;31129;44.810;10.334;2022-11-21T17:04:22;37.78;;;21.85;;
45392;SDS011;31129;44.810;10.334;2022-11-21T17:06:48;37.83;;;21.88;;
45392;SDS011;31129;44.810;10.334;2022-11-21T17:09:16;44.05;;;23.80;;